createdAt,value
2023-03-16T00:01:39.120Z,0.85
2023-03-16T00:04:04.940Z,0.77
2023-03-16T00:06:30.785Z,0.95
2023-03-16T00:08:58.403Z,0.88
2023-03-16T00:11:27.866Z,0.82
2023-03-16T00:13:53.680Z,0.99
2023-03-16T00:16:19.606Z,0.68
2023-03-16T00:18:45.712Z,0.67
2023-03-16T00:21:13.353Z,0.70
2023-03-16T00:23:39.544Z,0.54
2023-03-16T00:26:08.198Z,0.59
2023-03-16T00:28:35.313Z,0.61
2023-03-16T00:31:06.322Z,0.60
2023-03-16T00:33:38.346Z,0.60
2023-03-16T00:36:08.466Z,0.56
2023-03-16T00:38:44.608Z,0.67
2023-03-16T00:41:13.607Z,0.52
2023-03-16T00:43:40.201Z,0.57
2023-03-16T00:46:08.137Z,0.57
2023-03-16T00:48:35.611Z,0.57
2023-03-16T00:51:03.648Z,0.62
2023-03-16T00:53:30.605Z,0.58
2023-03-16T00:55:56.440Z,0.69
2023-03-16T00:58:22.550Z,0.54
2023-03-16T01:00:48.429Z,0.49
2023-03-16T01:03:14.252Z,0.44
2023-03-16T01:05:41.365Z,0.42
2023-03-16T01:08:08.372Z,0.54
2023-03-16T01:10:35.169Z,0.54
2023-03-16T01:13:02.424Z,0.55
2023-03-16T01:15:29.931Z,0.69
2023-03-16T01:17:56.398Z,0.59
2023-03-16T01:20:22.845Z,0.51
2023-03-16T01:22:48.650Z,0.55
2023-03-16T01:25:14.431Z,0.46
2023-03-16T01:27:41.513Z,0.52
2023-03-16T01:30:11.606Z,0.49
2023-03-16T01:32:39.142Z,0.44
2023-03-16T01:35:06.890Z,0.59
2023-03-16T01:37:32.748Z,0.58
2023-03-16T01:39:58.534Z,0.66
2023-03-16T01:42:24.281Z,0.59
2023-03-16T01:44:55.830Z,0.54
2023-03-16T01:47:22.512Z,0.57
2023-03-16T01:49:54.174Z,0.46
2023-03-16T01:52:32.740Z,0.59
2023-03-16T01:55:03.950Z,0.42
2023-03-16T01:57:38.796Z,0.45
2023-03-16T02:00:15.033Z,0.43
2023-03-16T02:02:43.467Z,0.44
2023-03-16T02:05:16.586Z,0.64
2023-03-16T02:07:51.527Z,0.60
2023-03-16T02:10:19.705Z,0.48
2023-03-16T02:12:46.325Z,0.49
2023-03-16T02:15:13.584Z,0.51
2023-03-16T02:17:42.980Z,0.46
2023-03-16T02:20:11.564Z,0.56
2023-03-16T02:22:42.144Z,0.66
2023-03-16T02:25:08.764Z,0.61
2023-03-16T02:27:46.329Z,0.67
2023-03-16T02:30:18.472Z,0.59
2023-03-16T02:32:47.393Z,0.51
2023-03-16T02:35:13.609Z,0.49
2023-03-16T02:37:41.133Z,0.62
2023-03-16T02:40:25.959Z,0.56
2023-03-16T02:43:12.272Z,0.71
2023-03-16T02:45:59.487Z,0.74
2023-03-16T02:48:34.008Z,0.62
2023-03-16T02:51:00.075Z,0.47
2023-03-16T02:53:25.939Z,0.38
2023-03-16T02:55:52.082Z,0.38
2023-03-16T02:58:18.573Z,0.60
2023-03-16T03:00:45.074Z,0.45
2023-03-16T03:03:11.266Z,0.40
2023-03-16T03:05:37.413Z,0.47
2023-03-16T03:08:04.592Z,0.30
2023-03-16T03:10:30.508Z,0.43
2023-03-16T03:12:56.818Z,0.38
2023-03-16T03:15:23.135Z,0.56
2023-03-16T03:17:49.161Z,0.46
2023-03-16T03:20:18.995Z,0.43
2023-03-16T03:22:47.616Z,0.50
2023-03-16T03:25:16.455Z,0.58
2023-03-16T03:27:42.915Z,0.57
2023-03-16T03:30:12.126Z,0.54
2023-03-16T03:32:39.043Z,0.47
2023-03-16T03:35:05.809Z,0.38
2023-03-16T03:37:32.025Z,0.34
2023-03-16T03:39:57.847Z,0.53
2023-03-16T03:42:23.855Z,0.53
2023-03-16T03:44:50.915Z,0.45
2023-03-16T03:47:17.273Z,0.18
2023-03-16T03:49:43.095Z,0.25
2023-03-16T03:52:08.978Z,0.21
2023-03-16T03:54:34.875Z,0.35
2023-03-16T03:57:00.737Z,0.33
2023-03-16T03:59:26.529Z,0.37
2023-03-16T04:01:53.086Z,0.37
2023-03-16T04:04:19.964Z,0.41
2023-03-16T04:06:46.292Z,0.38
2023-03-16T04:09:12.222Z,0.45
2023-03-16T04:11:38.397Z,0.49
2023-03-16T04:14:05.026Z,0.45
2023-03-16T04:16:31.209Z,0.45
2023-03-16T04:18:57.699Z,0.46
2023-03-16T04:21:24.006Z,0.57
2023-03-16T04:23:53.493Z,0.54
2023-03-16T04:26:24.877Z,0.41
2023-03-16T04:28:51.929Z,0.47
2023-03-16T04:31:17.908Z,0.58
2023-03-16T04:33:43.942Z,0.46
2023-03-16T04:36:09.956Z,0.40
2023-03-16T04:38:35.957Z,0.42
2023-03-16T04:41:04.053Z,0.49
2023-03-16T04:43:33.505Z,0.61
2023-03-16T04:46:03.518Z,0.63
2023-03-16T04:48:31.878Z,0.71
2023-03-16T04:50:58.921Z,0.76
2023-03-16T04:53:24.734Z,0.71
2023-03-16T04:55:50.546Z,0.61
2023-03-16T04:58:16.486Z,0.74
2023-03-16T05:00:42.405Z,0.64
2023-03-16T05:03:09.721Z,0.69
2023-03-16T05:05:37.770Z,0.51
2023-03-16T05:08:05.320Z,0.46
2023-03-16T05:10:32.652Z,0.54
2023-03-16T05:12:59.082Z,0.58
2023-03-16T05:15:25.175Z,0.42
2023-03-16T05:17:50.995Z,0.45
2023-03-16T05:20:17.462Z,0.52
2023-03-16T05:22:45.759Z,0.46
2023-03-16T05:25:15.185Z,0.37
2023-03-16T05:27:45.635Z,0.41
2023-03-16T05:30:13.139Z,0.48
2023-03-16T05:32:39.421Z,0.59
2023-03-16T05:35:06.446Z,0.52
2023-03-16T05:37:34.065Z,0.55
2023-03-16T05:40:00.802Z,0.57
2023-03-16T05:42:26.616Z,0.51
2023-03-16T05:44:53.068Z,0.40
2023-03-16T05:47:19.465Z,0.57
2023-03-16T05:49:45.318Z,0.51
2023-03-16T05:52:11.452Z,0.49
2023-03-16T05:54:37.379Z,0.50
2023-03-16T05:57:06.042Z,0.58
2023-03-16T05:59:32.104Z,0.47
2023-03-16T06:01:57.870Z,0.39
2023-03-16T06:04:23.787Z,0.35
2023-03-16T06:06:49.589Z,0.49
2023-03-16T06:09:15.382Z,0.46
2023-03-16T06:11:41.172Z,0.47
2023-03-16T06:14:06.994Z,0.62
2023-03-16T06:16:32.896Z,0.44
2023-03-16T06:18:59.953Z,0.62
2023-03-16T06:21:26.201Z,0.67
2023-03-16T06:23:52.070Z,0.71
2023-03-16T06:26:17.929Z,0.60
2023-03-16T06:28:43.863Z,0.71
2023-03-16T06:31:10.347Z,0.88
2023-03-16T06:33:37.915Z,0.86
2023-03-16T06:36:04.374Z,0.83
2023-03-16T06:38:30.320Z,0.89
2023-03-16T06:40:56.124Z,0.78
2023-03-16T06:43:21.966Z,0.60
2023-03-16T06:45:47.788Z,0.64
2023-03-16T06:48:13.650Z,0.66
2023-03-16T06:50:39.460Z,0.74
2023-03-16T06:53:05.296Z,0.91
2023-03-16T06:55:31.067Z,0.86
2023-03-16T06:57:56.850Z,0.89
2023-03-16T07:00:23.047Z,1.09
2023-03-16T07:02:48.785Z,1.08
2023-03-16T07:05:14.659Z,1.15
2023-03-16T07:07:42.150Z,1.12
2023-03-16T07:10:12.047Z,1.03
2023-03-16T07:12:37.970Z,0.98
2023-03-16T07:15:04.263Z,0.97
2023-03-16T07:17:31.527Z,1.06
2023-03-16T07:19:57.427Z,1.03
2023-03-16T07:22:23.413Z,1.15
2023-03-16T07:24:56.552Z,1.25
2023-03-16T07:27:23.504Z,1.42
2023-03-16T07:29:51.290Z,1.37
2023-03-16T07:32:17.896Z,1.22
2023-03-16T07:34:43.701Z,1.28
2023-03-16T07:37:10.212Z,1.35
2023-03-16T07:39:36.428Z,1.32
2023-03-16T07:42:02.654Z,1.41
2023-03-16T07:44:28.956Z,1.52
2023-03-16T07:46:54.833Z,1.39
2023-03-16T07:49:20.787Z,1.52
2023-03-16T07:51:46.818Z,1.52
2023-03-16T07:54:13.295Z,1.50
2023-03-16T07:56:48.916Z,1.55
2023-03-16T07:59:15.539Z,1.72
2023-03-16T08:01:41.294Z,1.63
2023-03-16T08:04:07.107Z,1.65
2023-03-16T08:06:32.890Z,1.76
2023-03-16T08:08:59.387Z,2.11
2023-03-16T08:11:26.407Z,2.31
2023-03-16T08:13:55.969Z,2.26
2023-03-16T08:16:23.295Z,2.24
2023-03-16T08:18:51.168Z,2.32
2023-03-16T08:21:18.138Z,2.38
2023-03-16T08:23:48.519Z,2.44
2023-03-16T08:26:19.537Z,2.39
2023-03-16T08:28:46.692Z,2.49
2023-03-16T08:31:14.489Z,2.57
2023-03-16T08:33:42.368Z,2.41
2023-03-16T08:36:11.202Z,2.43
2023-03-16T08:38:39.305Z,2.39
2023-03-16T08:41:05.638Z,2.49
2023-03-16T08:43:31.944Z,2.61
2023-03-16T08:45:58.747Z,2.55
2023-03-16T08:48:25.784Z,2.65
2023-03-16T08:50:53.211Z,2.57
2023-03-16T08:53:20.336Z,2.34
2023-03-16T08:55:46.928Z,2.49
2023-03-16T08:58:14.596Z,2.56
2023-03-16T09:00:40.824Z,2.57
2023-03-16T09:03:06.962Z,2.55
2023-03-16T09:05:34.240Z,2.60
2023-03-16T09:08:00.850Z,2.60
2023-03-16T09:10:27.372Z,2.50
2023-03-16T09:12:53.708Z,2.59
2023-03-16T09:15:20.321Z,2.77
2023-03-16T09:17:47.286Z,2.77
2023-03-16T09:20:26.863Z,2.78
2023-03-16T09:22:55.944Z,2.70
2023-03-16T09:25:23.438Z,2.67
2023-03-16T09:27:49.982Z,2.72
2023-03-16T09:30:16.327Z,2.72
2023-03-16T09:32:42.385Z,2.70
2023-03-16T09:35:08.428Z,2.90
2023-03-16T09:37:44.768Z,2.88
2023-03-16T09:40:24.240Z,3.00
2023-03-16T09:43:02.245Z,2.89
2023-03-16T09:45:39.523Z,3.13
2023-03-16T09:48:05.756Z,2.95
2023-03-16T09:50:47.748Z,3.10
2023-03-16T09:53:30.119Z,3.20
2023-03-16T09:56:03.352Z,3.45
2023-03-16T09:58:31.473Z,3.56
2023-03-16T10:01:16.110Z,3.76
2023-03-16T10:04:24.276Z,3.96
2023-03-16T10:07:11.470Z,4.26
2023-03-16T10:09:46.868Z,4.76
2023-03-16T10:12:13.923Z,5.03
2023-03-16T10:14:56.797Z,5.37
2023-03-16T10:17:57.208Z,5.98
2023-03-16T10:20:24.023Z,5.98
2023-03-16T10:22:52.027Z,6.23
2023-03-16T10:25:45.517Z,6.18
2023-03-16T10:28:21.041Z,6.09
2023-03-16T10:30:48.771Z,5.85
2023-03-16T10:33:30.751Z,6.12
2023-03-16T10:36:33.855Z,5.97
2023-03-16T10:39:04.568Z,6.47
2023-03-16T10:41:36.481Z,6.80
2023-03-16T10:44:24.410Z,6.82
2023-03-16T10:46:59.523Z,7.04
2023-03-16T10:49:27.408Z,6.83
2023-03-16T10:51:57.284Z,6.96
2023-03-16T10:54:36.425Z,7.98
2023-03-16T10:57:30.617Z,7.76
2023-03-16T11:00:06.438Z,7.16
2023-03-16T11:02:36.064Z,7.29
2023-03-16T11:05:32.665Z,6.57
2023-03-16T11:08:10.205Z,6.21
2023-03-16T11:10:49.343Z,6.06
2023-03-16T11:13:20.254Z,5.56
2023-03-16T11:15:49.977Z,5.65
2023-03-16T11:18:26.603Z,5.50
2023-03-16T11:20:54.464Z,5.58
2023-03-16T11:23:28.737Z,5.51
2023-03-16T11:25:58.448Z,5.43
2023-03-16T11:28:34.604Z,5.13
2023-03-16T11:31:13.142Z,5.38
2023-03-16T11:33:39.588Z,5.51
2023-03-16T11:36:15.357Z,5.50
2023-03-16T11:38:51.541Z,5.43
2023-03-16T11:41:32.874Z,5.32
2023-03-16T11:44:14.959Z,5.33
2023-03-16T11:47:19.222Z,5.46
2023-03-16T11:50:05.171Z,5.86
2023-03-16T11:52:43.925Z,6.13
2023-03-16T11:55:16.000Z,6.22
2023-03-16T11:58:17.303Z,6.13
2023-03-16T12:01:01.091Z,6.28
2023-03-16T12:03:53.185Z,6.38
2023-03-16T12:06:29.929Z,7.24
2023-03-16T12:09:37.081Z,8.24
2023-03-16T12:12:28.713Z,8.38
2023-03-16T12:15:16.393Z,9.05
2023-03-16T12:17:44.567Z,9.75
2023-03-16T12:20:22.619Z,10.84
2023-03-16T12:22:54.810Z,11.84
2023-03-16T12:25:24.916Z,12.42
2023-03-16T12:27:53.728Z,13.16
2023-03-16T12:30:35.443Z,13.25
2023-03-16T12:33:23.833Z,13.51
2023-03-16T12:36:29.956Z,12.77
2023-03-16T12:39:11.208Z,11.84
2023-03-16T12:41:44.657Z,12.55
2023-03-16T12:44:20.184Z,12.58
2023-03-16T12:46:56.932Z,13.49
2023-03-16T12:49:24.379Z,13.84
2023-03-16T12:52:11.842Z,13.76
2023-03-16T12:54:49.006Z,13.45
2023-03-16T12:57:16.404Z,11.72
2023-03-16T12:59:49.828Z,10.69
2023-03-16T13:02:31.804Z,10.53
2023-03-16T13:05:02.075Z,9.84
2023-03-16T13:07:31.152Z,9.85
2023-03-16T13:10:03.587Z,9.65
2023-03-16T13:12:32.091Z,9.70
2023-03-16T13:14:58.731Z,9.24
2023-03-16T13:17:32.944Z,9.09
2023-03-16T13:20:02.552Z,8.95
2023-03-16T13:22:40.200Z,8.79
2023-03-16T13:25:14.722Z,8.71
2023-03-16T13:27:45.200Z,8.65
2023-03-16T13:30:31.765Z,8.48
2023-03-16T13:33:27.612Z,8.38
2023-03-16T13:35:56.770Z,8.48
2023-03-16T13:38:30.643Z,8.44
2023-03-16T13:41:02.444Z,8.66
2023-03-16T13:43:36.412Z,8.30
2023-03-16T13:46:14.129Z,8.28
2023-03-16T13:48:40.957Z,8.63
2023-03-16T13:51:15.447Z,9.05
2023-03-16T13:53:42.601Z,8.75
2023-03-16T13:56:14.152Z,8.86
2023-03-16T13:58:43.253Z,9.09
2023-03-16T14:01:30.325Z,9.84
2023-03-16T14:03:59.775Z,10.24
2023-03-16T14:06:28.492Z,10.59
2023-03-16T14:09:04.799Z,10.43
2023-03-16T14:11:31.023Z,10.23
2023-03-16T14:13:58.553Z,10.04
2023-03-16T14:16:28.115Z,9.47
2023-03-16T14:18:58.127Z,9.34
2023-03-16T14:21:30.757Z,9.38
2023-03-16T14:23:59.521Z,9.20
2023-03-16T14:26:26.382Z,9.18
2023-03-16T14:29:07.759Z,9.23
2023-03-16T14:31:37.672Z,9.46
2023-03-16T14:34:08.080Z,9.59
2023-03-16T14:36:36.708Z,9.69
2023-03-16T14:39:18.668Z,9.70
2023-03-16T14:41:49.025Z,9.24
2023-03-16T14:44:28.046Z,9.70
2023-03-16T14:46:58.558Z,9.56
2023-03-16T14:49:32.471Z,9.47
2023-03-16T14:52:07.368Z,9.35
2023-03-16T14:54:33.409Z,9.47
2023-03-16T14:57:01.999Z,9.29
2023-03-16T14:59:27.799Z,9.40
2023-03-16T15:01:54.549Z,9.33
2023-03-16T15:04:33.598Z,9.28
2023-03-16T15:07:01.424Z,9.11
2023-03-16T15:09:32.688Z,8.96
2023-03-16T15:11:58.738Z,9.11
2023-03-16T15:14:44.811Z,8.93
2023-03-16T15:17:11.056Z,8.74
2023-03-16T15:19:37.039Z,8.96
2023-03-16T15:22:04.519Z,9.21
2023-03-16T15:24:32.560Z,9.52
2023-03-16T15:26:59.139Z,9.56
2023-03-16T15:29:24.922Z,9.28
2023-03-16T15:31:52.764Z,8.94
2023-03-16T15:34:20.867Z,8.98
2023-03-16T15:36:46.737Z,8.92
2023-03-16T15:39:21.368Z,8.82
2023-03-16T15:41:48.057Z,8.57
2023-03-16T15:44:14.231Z,8.48
2023-03-16T15:46:40.802Z,8.33
2023-03-16T15:49:07.534Z,8.52
2023-03-16T15:51:33.445Z,8.42
2023-03-16T15:54:02.816Z,8.11
2023-03-16T15:56:33.517Z,8.15
2023-03-16T15:59:05.349Z,8.08
2023-03-16T16:01:39.578Z,7.98
2023-03-16T16:04:11.721Z,8.05
2023-03-16T16:06:37.546Z,7.98
2023-03-16T16:09:03.428Z,7.95
2023-03-16T16:11:30.231Z,8.03
2023-03-16T16:13:57.470Z,7.79
2023-03-16T16:16:26.806Z,7.86
2023-03-16T16:18:52.637Z,7.86
2023-03-16T16:21:28.226Z,7.96
2023-03-16T16:23:54.191Z,8.04
2023-03-16T16:26:19.873Z,7.95
2023-03-16T16:28:46.880Z,7.59
2023-03-16T16:31:13.902Z,7.45
2023-03-16T16:33:39.961Z,7.52
2023-03-16T16:36:13.393Z,7.40
2023-03-16T16:38:39.508Z,7.38
2023-03-16T16:41:14.896Z,7.40
2023-03-16T16:43:43.557Z,7.39
2023-03-16T16:46:24.199Z,7.43
2023-03-16T16:48:53.526Z,7.28
2023-03-16T16:51:24.985Z,7.28
2023-03-16T16:53:53.347Z,7.27
2023-03-16T16:56:27.002Z,7.22
2023-03-16T16:58:54.177Z,7.06
2023-03-16T17:01:27.568Z,6.96
2023-03-16T17:03:53.622Z,6.89
2023-03-16T17:06:19.676Z,6.90
2023-03-16T17:08:46.520Z,6.84
2023-03-16T17:11:26.344Z,6.90
2023-03-16T17:13:54.651Z,6.74
2023-03-16T17:16:22.137Z,6.93
2023-03-16T17:18:48.943Z,6.79
2023-03-16T17:21:19.054Z,6.76
2023-03-16T17:23:46.107Z,6.61
2023-03-16T17:26:16.769Z,6.64
2023-03-16T17:28:51.496Z,6.48
2023-03-16T17:31:22.489Z,6.38
2023-03-16T17:33:50.633Z,6.36
2023-03-16T17:36:16.918Z,6.40
2023-03-16T17:38:42.929Z,6.41
2023-03-16T17:41:20.543Z,6.44
2023-03-16T17:43:47.248Z,6.28
2023-03-16T17:46:17.773Z,6.39
2023-03-16T17:48:44.838Z,6.34
2023-03-16T17:51:14.311Z,6.24
2023-03-16T17:53:40.674Z,6.23
2023-03-16T17:56:24.795Z,6.24
2023-03-16T17:58:53.362Z,6.21
2023-03-16T18:01:23.360Z,5.99
2023-03-16T18:03:49.224Z,6.03
2023-03-16T18:06:19.875Z,5.92
2023-03-16T18:08:48.562Z,6.01
2023-03-16T18:11:48.253Z,6.01
2023-03-16T18:14:34.003Z,5.89
2023-03-16T18:17:14.474Z,5.86
2023-03-16T18:19:42.704Z,5.96
2023-03-16T18:22:23.902Z,5.80
2023-03-16T18:24:51.905Z,5.81
2023-03-16T18:27:18.881Z,5.81
2023-03-16T18:29:46.275Z,5.78
2023-03-16T18:32:22.524Z,5.74
2023-03-16T18:34:48.906Z,5.82
2023-03-16T18:37:26.302Z,5.73
2023-03-16T18:39:53.595Z,5.70
2023-03-16T18:42:25.169Z,5.64
2023-03-16T18:44:51.391Z,5.66
2023-03-16T18:47:21.308Z,5.64
2023-03-16T18:49:50.605Z,5.56
2023-03-16T18:52:23.103Z,5.52
2023-03-16T18:54:50.652Z,5.46
2023-03-16T18:57:21.563Z,5.41
2023-03-16T18:59:50.265Z,5.61
2023-03-16T19:02:36.280Z,5.37
2023-03-16T19:05:03.681Z,5.38
2023-03-16T19:07:35.892Z,5.42
2023-03-16T19:10:07.824Z,5.39
2023-03-16T19:12:33.968Z,5.60
2023-03-16T19:14:59.867Z,5.44
2023-03-16T19:17:25.678Z,5.58
2023-03-16T19:19:51.876Z,5.52
2023-03-16T19:22:20.586Z,5.39
2023-03-16T19:24:53.643Z,5.39
2023-03-16T19:27:25.603Z,5.38
2023-03-16T19:29:53.231Z,5.42
2023-03-16T19:32:20.889Z,5.43
2023-03-16T19:34:47.040Z,5.40
2023-03-16T19:37:14.529Z,5.38
2023-03-16T19:39:44.294Z,5.40
2023-03-16T19:42:18.386Z,5.31
2023-03-16T19:44:47.867Z,5.39
2023-03-16T19:47:23.685Z,5.42
2023-03-16T19:49:49.545Z,5.41
2023-03-16T19:52:15.822Z,5.38
2023-03-16T19:54:43.514Z,5.33
2023-03-16T19:57:15.862Z,5.42
2023-03-16T19:59:45.039Z,5.38
2023-03-16T20:02:40.192Z,5.38
2023-03-16T20:05:07.593Z,5.31
2023-03-16T20:07:37.294Z,5.28
2023-03-16T20:10:05.098Z,5.34
2023-03-16T20:12:31.719Z,5.19
2023-03-16T20:14:59.081Z,5.44
2023-03-16T20:17:29.634Z,5.36
2023-03-16T20:19:57.016Z,5.43
2023-03-16T20:22:25.462Z,5.37
2023-03-16T20:24:53.638Z,5.23
2023-03-16T20:27:22.108Z,5.23
2023-03-16T20:29:48.611Z,5.22
2023-03-16T20:32:24.790Z,5.27
2023-03-16T20:34:52.881Z,5.32
2023-03-16T20:37:25.540Z,5.30
2023-03-16T20:39:53.293Z,5.30
2023-03-16T20:42:23.881Z,5.32
2023-03-16T20:44:50.267Z,5.35
2023-03-16T20:47:18.663Z,5.32
2023-03-16T20:49:44.672Z,5.34
2023-03-16T20:52:25.407Z,5.28
2023-03-16T20:54:51.893Z,5.30
2023-03-16T20:57:21.990Z,5.26
2023-03-16T20:59:50.840Z,5.30
2023-03-16T21:02:36.648Z,5.35
2023-03-16T21:05:05.841Z,5.32
2023-03-16T21:07:32.288Z,5.39
2023-03-16T21:09:58.141Z,5.41
2023-03-16T21:12:31.320Z,5.52
2023-03-16T21:14:58.776Z,5.58
2023-03-16T21:17:31.246Z,5.46
2023-03-16T21:19:58.368Z,5.38
2023-03-16T21:22:27.897Z,5.34
2023-03-16T21:24:54.982Z,5.46
2023-03-16T21:27:29.778Z,5.40
2023-03-16T21:29:58.970Z,5.40
2023-03-16T21:32:26.202Z,5.39
2023-03-16T21:34:52.541Z,5.47
2023-03-16T21:37:20.666Z,5.45
2023-03-16T21:39:51.086Z,5.67
2023-03-16T21:42:19.989Z,5.51
2023-03-16T21:44:46.515Z,5.38
2023-03-16T21:47:26.758Z,5.37
2023-03-16T21:49:53.842Z,5.45
2023-03-16T21:52:26.098Z,5.45
2023-03-16T21:54:53.029Z,5.41
2023-03-16T21:57:19.231Z,5.42
2023-03-16T21:59:45.878Z,5.51
2023-03-16T22:02:23.918Z,5.48
2023-03-16T22:04:51.437Z,5.39
2023-03-16T22:07:17.652Z,5.47
2023-03-16T22:09:43.555Z,5.51
2023-03-16T22:12:13.305Z,5.51
2023-03-16T22:14:39.973Z,5.48
2023-03-16T22:17:10.879Z,5.54
2023-03-16T22:19:36.698Z,5.48
2023-03-16T22:22:02.853Z,5.51
2023-03-16T22:24:30.141Z,5.53
2023-03-16T22:26:57.339Z,5.53
2023-03-16T22:29:30.865Z,5.57
2023-03-16T22:32:06.164Z,5.57
2023-03-16T22:34:41.341Z,5.72
2023-03-16T22:37:08.462Z,5.67
2023-03-16T22:39:36.929Z,5.63
2023-03-16T22:42:21.670Z,5.61
2023-03-16T22:44:47.447Z,5.61
2023-03-16T22:47:25.570Z,5.58
2023-03-16T22:49:51.708Z,5.59
2023-03-16T22:52:18.014Z,5.62
2023-03-16T22:54:45.685Z,5.63
2023-03-16T22:57:14.240Z,5.56
2023-03-16T22:59:40.746Z,5.65
2023-03-16T23:02:14.638Z,5.60
2023-03-16T23:04:40.672Z,5.60
2023-03-16T23:07:14.213Z,5.68
2023-03-16T23:09:40.630Z,5.58
2023-03-16T23:12:20.321Z,5.60
2023-03-16T23:14:46.287Z,5.59
2023-03-16T23:17:18.009Z,5.61
2023-03-16T23:19:45.219Z,5.61
2023-03-16T23:22:11.474Z,5.58
2023-03-16T23:24:37.559Z,5.64
2023-03-16T23:27:04.099Z,5.58
2023-03-16T23:29:30.177Z,5.64
2023-03-16T23:31:56.120Z,5.69
2023-03-16T23:34:24.326Z,5.66
2023-03-16T23:36:50.963Z,5.65
2023-03-16T23:39:17.700Z,5.60
2023-03-16T23:41:46.266Z,5.72
2023-03-16T23:44:21.200Z,5.76
2023-03-16T23:46:47.211Z,5.61
2023-03-16T23:49:22.993Z,5.54
2023-03-16T23:51:50.204Z,5.52
2023-03-16T23:54:22.471Z,5.73
2023-03-16T23:56:48.836Z,5.66
2023-03-16T23:59:15.684Z,5.70
